Time;durP1;ratioP1;P1;durP2;ratioP2;P2;SDS_P1;SDS_P2;PMS_P1;PMS_P2;Temp;Humidity;BMP_temperature;BMP_pressure;BME280_temperature;BME280_humidity;BME280_pressure;Samples;Min_cycle;Max_cycle;Signal;HPM_P1;HPM_P2
2024/01/03 00:01:17;;;;;;;5.00;1.60;;;;;11.60;98087.00;;;;5039801;28;20232;-70
2024/01/03 00:04:04;;;;;;;9.90;1.90;;;;;11.70;98089.00;;;;5046007;28;20715;-71
2024/01/03 00:06:51;;;;;;;7.77;1.60;;;;;11.70;98091.00;;;;5044453;28;20244;-69
2024/01/03 00:09:39;;;;;;;3.37;1.33;;;;;11.60;98090.00;;;;5040098;28;20224;-71
2024/01/03 00:12:25;;;;;;;4.00;1.30;;;;;11.60;98082.00;;;;5041382;28;20233;-66
2024/01/03 00:16:07;;;;;;;4.40;1.57;;;;;11.60;98091.00;;;;5038780;28;20295;-71
2024/01/03 00:18:56;;;;;;;6.00;1.87;;;;;11.70;98082.00;;;;5042480;28;20767;-71
2024/01/03 00:21:43;;;;;;;6.50;1.60;;;;;11.60;98075.00;;;;5040229;28;20313;-70
2024/01/03 00:24:30;;;;;;;9.60;1.93;;;;;11.60;98087.00;;;;5046579;28;20244;-70
2024/01/03 00:27:19;;;;;;;4.53;1.20;;;;;11.60;98094.00;;;;5039753;28;20399;-70
2024/01/03 00:30:07;;;;;;;6.30;1.23;;;;;11.70;98108.00;;;;5046219;28;20224;-71
2024/01/03 00:32:54;;;;;;;4.90;1.47;;;;;11.70;98121.00;;;;5043832;28;20236;-69
2024/01/03 00:35:51;;;;;;;5.57;1.03;;;;;11.70;98109.00;;;;5041670;28;20767;-70
2024/01/03 00:38:41;;;;;;;2.27;1.23;;;;;11.70;98114.00;;;;5039014;28;20229;-70
2024/01/03 00:41:28;;;;;;;6.27;1.23;;;;;11.70;98127.00;;;;5035267;28;20337;-69
2024/01/03 00:44:15;;;;;;;11.30;1.53;;;;;11.70;98136.00;;;;5037747;28;20344;-70
2024/01/03 00:47:02;;;;;;;6.33;1.30;;;;;11.70;98122.00;;;;5036968;28;20233;-69
2024/01/03 00:49:49;;;;;;;6.03;1.50;;;;;11.70;98113.00;;;;5040176;28;20730;-70
2024/01/03 00:52:35;;;;;;;9.50;1.70;;;;;11.80;98133.00;;;;5043582;28;20725;-71
2024/01/03 00:55:24;;;;;;;6.97;1.33;;;;;11.70;98149.00;;;;5038461;28;20331;-71
2024/01/03 00:58:11;;;;;;;7.23;1.73;;;;;11.70;98128.00;;;;5040543;28;20303;-70
2024/01/03 01:00:59;;;;;;;8.07;1.43;;;;;11.70;98145.00;;;;5044799;28;20360;-70
2024/01/03 01:03:45;;;;;;;3.27;0.93;;;;;11.60;98125.00;;;;5037128;28;20693;-68
2024/01/03 01:06:32;;;;;;;10.07;1.80;;;;;11.70;98129.00;;;;5039155;28;20252;-71
2024/01/03 01:09:19;;;;;;;3.03;1.40;;;;;11.70;98154.00;;;;5041545;28;20227;-70
2024/01/03 01:12:05;;;;;;;3.80;1.37;;;;;11.60;98145.00;;;;5042257;28;20291;-66
2024/01/03 01:14:51;;;;;;;4.47;1.43;;;;;11.60;98143.00;;;;5045281;28;20307;-69
2024/01/03 01:17:39;;;;;;;4.07;1.40;;;;;11.50;98146.00;;;;5040523;28;20232;-69
2024/01/03 01:20:25;;;;;;;6.83;1.30;;;;;11.60;98165.00;;;;5038104;28;20652;-68
2024/01/03 01:23:11;;;;;;;5.83;1.43;;;;;11.60;98172.00;;;;5042728;28;20224;-71
2024/01/03 01:25:58;;;;;;;8.10;1.07;;;;;11.50;98156.00;;;;5042906;28;20235;-70
2024/01/03 01:28:44;;;;;;;2.00;1.30;;;;;11.50;98165.00;;;;5044646;28;20240;-69
2024/01/03 01:31:31;;;;;;;3.40;1.23;;;;;11.50;98173.00;;;;5042397;28;20717;-70
2024/01/03 01:34:18;;;;;;;2.87;1.30;;;;;11.50;98173.00;;;;5039545;28;20229;-70
2024/01/03 01:37:05;;;;;;;8.87;1.80;;;;;11.40;98181.00;;;;5039092;28;20900;-68
2024/01/03 01:39:51;;;;;;;3.10;1.60;;;;;11.40;98189.00;;;;5032980;28;20283;-69
2024/01/03 01:42:41;;;;;;;6.07;1.13;;;;;11.40;98179.00;;;;5040184;28;20248;-70
2024/01/03 01:45:28;;;;;;;7.67;2.07;;;;;11.40;98196.00;;;;5038630;28;20228;-71
2024/01/03 01:48:15;;;;;;;4.77;1.47;;;;;11.40;98197.00;;;;5044442;28;20420;-71
2024/01/03 01:51:04;;;;;;;4.60;1.33;;;;;11.30;98176.00;;;;5044043;28;20225;-70
2024/01/03 01:53:51;;;;;;;2.93;1.53;;;;;11.30;98194.00;;;;5039240;28;20253;-69
2024/01/03 01:56:37;;;;;;;7.07;1.37;;;;;11.30;98205.00;;;;5041846;28;20303;-68
2024/01/03 01:59:23;;;;;;;8.70;2.10;;;;;11.30;98200.00;;;;5038092;28;20306;-70
2024/01/03 02:02:11;;;;;;;11.53;1.70;;;;;11.30;98221.00;;;;5044163;28;20618;-70
2024/01/03 02:04:59;;;;;;;5.50;1.90;;;;;11.30;98213.00;;;;5043997;28;20282;-70
2024/01/03 02:07:47;;;;;;;7.83;2.37;;;;;11.30;98213.00;;;;5039044;28;20748;-70
2024/01/03 02:10:33;;;;;;;7.90;1.57;;;;;11.20;98212.00;;;;5035945;28;20356;-70
2024/01/03 02:13:19;;;;;;;8.30;1.90;;;;;11.30;98221.00;;;;5036155;28;20257;-69
2024/01/03 02:16:06;;;;;;;3.67;1.33;;;;;11.20;98223.00;;;;5044606;28;20244;-67
2024/01/03 02:18:52;;;;;;;8.60;2.20;;;;;11.10;98210.00;;;;5044625;28;20224;-71
2024/01/03 02:21:41;;;;;;;5.53;1.63;;;;;11.10;98254.00;;;;5038460;28;21145;-70
2024/01/03 02:24:27;;;;;;;10.33;1.83;;;;;11.10;98229.00;;;;5037026;28;20686;-70
2024/01/03 02:27:14;;;;;;;7.67;1.63;;;;;11.10;98251.00;;;;5041744;28;20222;-71
2024/01/03 02:30:00;;;;;;;12.33;2.30;;;;;11.00;98248.00;;;;5041200;28;20220;-70
2024/01/03 02:32:47;;;;;;;8.43;2.03;;;;;11.00;98244.00;;;;5041902;28;20233;-70
2024/01/03 02:35:33;;;;;;;7.53;1.57;;;;;11.00;98261.00;;;;5035747;28;20241;-72
2024/01/03 02:38:22;;;;;;;7.37;1.93;;;;;11.00;98267.00;;;;5042222;28;20323;-71
2024/01/03 02:41:08;;;;;;;5.10;1.27;;;;;11.00;98250.00;;;;5041541;28;20240;-70
2024/01/03 02:43:54;;;;;;;6.43;1.97;;;;;10.90;98269.00;;;;5038529;28;20232;-70
2024/01/03 02:46:41;;;;;;;9.57;2.30;;;;;10.90;98256.00;;;;5038803;28;20241;-69
2024/01/03 02:49:27;;;;;;;5.90;1.67;;;;;10.80;98270.00;;;;5036049;28;20590;-69
2024/01/03 02:52:13;;;;;;;7.77;1.80;;;;;10.90;98261.00;;;;5038297;28;20224;-70
2024/01/03 02:55:01;;;;;;;8.13;2.13;;;;;10.80;98260.00;;;;5041616;28;20243;-68
2024/01/03 02:57:48;;;;;;;8.10;2.63;;;;;10.80;98255.00;;;;5038794;28;20737;-69
2024/01/03 03:00:36;;;;;;;11.00;1.97;;;;;10.90;98244.00;;;;5037482;28;20225;-70
2024/01/03 03:03:22;;;;;;;6.43;1.97;;;;;10.70;98259.00;;;;5036676;28;20302;-68
2024/01/03 03:06:09;;;;;;;7.33;1.30;;;;;10.70;98260.00;;;;5036576;28;20240;-73
2024/01/03 03:08:55;;;;;;;9.50;1.93;;;;;10.70;98272.00;;;;5031924;28;20237;-69
2024/01/03 03:12:02;;;;;;;8.00;2.03;;;;;10.70;98259.00;;;;5039721;28;20777;-71
2024/01/03 03:14:50;;;;;;;5.97;1.63;;;;;10.60;98273.00;;;;5028041;28;20262;-67
2024/01/03 03:17:36;;;;;;;10.87;2.00;;;;;10.60;98294.00;;;;5035114;28;20717;-69
2024/01/03 03:20:22;;;;;;;4.33;1.50;;;;;10.60;98288.00;;;;5043312;28;20221;-69
2024/01/03 03:23:09;;;;;;;4.53;1.13;;;;;10.60;98267.00;;;;5040612;28;20263;-70
2024/01/03 03:25:55;;;;;;;2.00;1.20;;;;;10.60;98281.00;;;;5038856;28;20311;-70
2024/01/03 03:28:43;;;;;;;4.97;1.20;;;;;10.60;98295.00;;;;5037866;28;20261;-69
2024/01/03 03:31:29;;;;;;;2.97;1.57;;;;;10.60;98271.00;;;;5035508;28;20843;-70
2024/01/03 03:34:16;;;;;;;6.20;2.10;;;;;10.60;98284.00;;;;5045054;28;20233;-70
2024/01/03 03:37:03;;;;;;;6.27;1.60;;;;;10.60;98264.00;;;;5046701;28;20236;-70
2024/01/03 03:39:49;;;;;;;4.03;1.37;;;;;10.60;98306.00;;;;5042350;28;20759;-71
2024/01/03 03:42:36;;;;;;;8.57;1.67;;;;;10.60;98291.00;;;;5047853;28;20617;-70
2024/01/03 03:45:23;;;;;;;5.57;1.67;;;;;10.60;98302.00;;;;5046352;28;20460;-69
2024/01/03 03:48:09;;;;;;;8.93;1.33;;;;;10.50;98298.00;;;;5045447;28;20294;-71
2024/01/03 03:50:57;;;;;;;7.30;1.70;;;;;10.60;98296.00;;;;5047368;28;20248;-71
2024/01/03 03:53:43;;;;;;;6.53;1.60;;;;;10.60;98283.00;;;;5039550;28;20229;-69
2024/01/03 03:56:29;;;;;;;7.53;1.53;;;;;10.60;98303.00;;;;5038702;28;20264;-70
2024/01/03 03:59:16;;;;;;;6.67;1.97;;;;;10.60;98304.00;;;;5045237;28;20245;-70
2024/01/03 04:02:03;;;;;;;4.80;1.87;;;;;10.60;98302.00;;;;5037813;28;20952;-70
2024/01/03 04:04:50;;;;;;;6.37;1.27;;;;;10.70;98285.00;;;;5042276;28;20236;-70
2024/01/03 04:07:37;;;;;;;4.53;1.63;;;;;10.70;98300.00;;;;5044674;28;20229;-70
2024/01/03 04:10:24;;;;;;;2.60;1.37;;;;;10.70;98305.00;;;;5044534;28;20233;-70
2024/01/03 04:13:11;;;;;;;5.13;1.13;;;;;10.70;98298.00;;;;5041225;28;20648;-71
2024/01/03 04:16:02;;;;;;;4.33;1.20;;;;;10.70;98289.00;;;;5042564;28;20235;-70
2024/01/03 04:18:50;;;;;;;3.87;1.20;;;;;10.70;98308.00;;;;5043627;28;20363;-69
2024/01/03 04:21:37;;;;;;;8.47;1.50;;;;;10.70;98298.00;;;;5045479;28;20229;-69
2024/01/03 04:24:24;;;;;;;3.30;1.20;;;;;10.80;98306.00;;;;5045467;28;20371;-70
2024/01/03 04:27:10;;;;;;;7.97;1.30;;;;;10.70;98314.00;;;;5035816;28;20232;-70
2024/01/03 04:29:56;;;;;;;3.60;1.50;;;;;10.70;98317.00;;;;5042401;28;20713;-71
2024/01/03 04:32:43;;;;;;;16.17;1.80;;;;;10.80;98322.00;;;;5041387;28;20603;-71
2024/01/03 04:35:30;;;;;;;4.53;1.50;;;;;10.70;98335.00;;;;5038744;28;20228;-70
2024/01/03 04:38:16;;;;;;;4.23;1.27;;;;;10.80;98333.00;;;;5040894;28;20303;-70
2024/01/03 04:41:03;;;;;;;4.83;1.53;;;;;10.80;98331.00;;;;5042604;28;20232;-71
2024/01/03 04:43:50;;;;;;;4.27;1.30;;;;;10.80;98353.00;;;;5039291;28;20619;-67
2024/01/03 04:46:36;;;;;;;6.90;1.77;;;;;10.80;98315.00;;;;5037836;28;20283;-69
2024/01/03 04:49:23;;;;;;;3.07;1.27;;;;;10.80;98341.00;;;;5046297;28;20282;-69
2024/01/03 04:52:12;;;;;;;5.20;1.67;;;;;10.70;98342.00;;;;5040881;28;20233;-71
2024/01/03 04:54:58;;;;;;;3.07;1.30;;;;;10.70;98327.00;;;;5038667;28;20262;-69
2024/01/03 04:57:45;;;;;;;8.13;1.53;;;;;10.70;98352.00;;;;5039341;28;20242;-70
2024/01/03 05:00:33;;;;;;;6.37;2.03;;;;;10.60;98341.00;;;;5044227;28;20318;-70
2024/01/03 05:03:20;;;;;;;10.63;1.40;;;;;10.60;98347.00;;;;5042942;28;20269;-69
2024/01/03 05:06:07;;;;;;;8.20;1.80;;;;;10.60;98347.00;;;;5041421;28;20232;-70
2024/01/03 05:08:55;;;;;;;7.07;2.23;;;;;10.50;98354.00;;;;5039671;28;20212;-70
2024/01/03 05:11:41;;;;;;;10.73;1.47;;;;;10.50;98348.00;;;;5042237;28;20232;-69
2024/01/03 05:14:28;;;;;;;1.70;1.30;;;;;10.40;98365.00;;;;5044219;28;20360;-70
2024/01/03 05:17:14;;;;;;;4.50;1.63;;;;;10.40;98370.00;;;;5042269;28;20240;-70
2024/01/03 05:20:00;;;;;;;13.40;1.70;;;;;10.40;98368.00;;;;5043398;28;20232;-70
2024/01/03 05:22:46;;;;;;;3.67;1.10;;;;;10.30;98366.00;;;;5045102;28;20236;-73
2024/01/03 05:25:34;;;;;;;2.20;1.40;;;;;10.20;98365.00;;;;5044751;28;20379;-70
2024/01/03 05:28:21;;;;;;;3.97;1.30;;;;;10.30;98375.00;;;;5038062;28;20284;-69
2024/01/03 05:31:07;;;;;;;4.47;1.50;;;;;10.30;98374.00;;;;5045084;28;20231;-70
2024/01/03 05:33:54;;;;;;;3.40;1.57;;;;;10.20;98368.00;;;;5032135;28;20240;-70
2024/01/03 05:36:40;;;;;;;10.13;1.70;;;;;10.20;98362.00;;;;5040418;28;20240;-72
2024/01/03 05:39:27;;;;;;;2.33;1.10;;;;;10.20;98359.00;;;;5036950;28;20237;-69
2024/01/03 05:42:15;;;;;;;4.50;1.33;;;;;10.20;98353.00;;;;5041318;28;20232;-70
2024/01/03 05:45:01;;;;;;;2.70;1.27;;;;;10.20;98351.00;;;;5039031;28;20241;-70
2024/01/03 05:47:48;;;;;;;3.37;1.33;;;;;10.10;98376.00;;;;5037394;28;20229;-67
2024/01/03 05:50:34;;;;;;;6.73;1.40;;;;;10.20;98374.00;;;;5033493;28;20233;-71
2024/01/03 05:53:21;;;;;;;3.13;1.57;;;;;10.20;98369.00;;;;5043054;28;20232;-70
2024/01/03 05:56:08;;;;;;;8.43;1.10;;;;;10.10;98372.00;;;;5045092;28;20307;-69
2024/01/03 05:58:56;;;;;;;15.67;2.33;;;;;10.10;98371.00;;;;5040371;28;20981;-70
2024/01/03 06:01:45;;;;;;;3.13;1.57;;;;;10.20;98365.00;;;;5035814;28;20233;-69
2024/01/03 06:04:31;;;;;;;1.40;1.10;;;;;10.20;98377.00;;;;5035182;28;20264;-69
2024/01/03 06:07:17;;;;;;;5.37;1.10;;;;;10.20;98374.00;;;;5042365;28;20597;-70
2024/01/03 06:10:05;;;;;;;7.13;1.63;;;;;10.20;98382.00;;;;5031150;28;20237;-71
2024/01/03 06:12:52;;;;;;;2.83;1.20;;;;;10.30;98372.00;;;;5033489;28;20228;-70
2024/01/03 06:15:40;;;;;;;2.17;1.17;;;;;10.30;98384.00;;;;5043538;28;20272;-71
2024/01/03 06:18:26;;;;;;;3.57;1.03;;;;;10.30;98369.00;;;;5041710;28;20336;-69
2024/01/03 06:21:12;;;;;;;1.90;1.20;;;;;10.30;98376.00;;;;5038282;28;20356;-70
2024/01/03 06:23:59;;;;;;;3.80;1.43;;;;;10.30;98377.00;;;;5035314;28;20279;-71
2024/01/03 06:26:45;;;;;;;1.10;1.10;;;;;10.40;98380.00;;;;5032678;28;20374;-69
2024/01/03 06:29:32;;;;;;;1.60;1.00;;;;;10.40;98397.00;;;;5039868;28;20734;-70
2024/01/03 06:32:20;;;;;;;2.17;1.20;;;;;10.40;98381.00;;;;5037537;28;20224;-72
2024/01/03 06:35:08;;;;;;;1.90;0.93;;;;;10.40;98374.00;;;;5038155;28;20236;-70
2024/01/03 06:37:57;;;;;;;3.63;1.20;;;;;10.30;98373.00;;;;5041162;28;20736;-70
2024/01/03 06:40:43;;;;;;;2.20;1.20;;;;;10.40;98375.00;;;;5039377;28;20228;-72
2024/01/03 06:43:30;;;;;;;3.03;1.40;;;;;10.40;98372.00;;;;5041748;28;20237;-70
2024/01/03 06:46:16;;;;;;;1.03;0.97;;;;;10.40;98380.00;;;;5040556;28;20232;-70
2024/01/03 06:49:04;;;;;;;3.63;1.30;;;;;10.40;98386.00;;;;5038679;28;20233;-68
2024/01/03 06:51:51;;;;;;;1.43;1.33;;;;;10.40;98379.00;;;;5038303;28;20883;-71
2024/01/03 06:54:37;;;;;;;1.30;1.20;;;;;10.40;98378.00;;;;5040495;28;20228;-69
2024/01/03 06:57:23;;;;;;;2.90;1.40;;;;;10.30;98382.00;;;;5040396;28;20228;-70
2024/01/03 07:00:11;;;;;;;1.00;0.90;;;;;10.30;98386.00;;;;5033446;28;20236;-71
2024/01/03 07:02:58;;;;;;;3.80;0.87;;;;;10.30;98393.00;;;;5031561;28;20662;-71
2024/01/03 07:05:45;;;;;;;3.37;1.30;;;;;10.40;98405.00;;;;5029884;28;20233;-72
2024/01/03 07:08:32;;;;;;;1.63;0.70;;;;;10.30;98392.00;;;;5038962;28;20231;-72
2024/01/03 07:11:18;;;;;;;1.17;0.90;;;;;10.30;98379.00;;;;5042371;28;20295;-71
2024/01/03 07:14:05;;;;;;;0.83;0.77;;;;;10.40;98405.00;;;;5040941;28;20232;-71
2024/01/03 07:16:51;;;;;;;1.97;1.20;;;;;10.30;98382.00;;;;5039262;28;20352;-70
2024/01/03 07:19:37;;;;;;;1.87;0.87;;;;;10.20;98398.00;;;;5044018;28;20243;-70
2024/01/03 07:22:25;;;;;;;1.90;1.10;;;;;10.20;98410.00;;;;5044457;28;20545;-70
2024/01/03 07:25:11;;;;;;;2.27;1.27;;;;;10.20;98392.00;;;;5036927;28;20256;-71
2024/01/03 07:27:57;;;;;;;0.97;0.97;;;;;10.20;98402.00;;;;5038987;28;20635;-70
2024/01/03 07:30:44;;;;;;;2.83;0.97;;;;;10.10;98408.00;;;;5047879;28;20295;-71
2024/01/03 07:33:30;;;;;;;0.80;0.70;;;;;10.10;98401.00;;;;5036538;28;20351;-71
2024/01/03 07:36:17;;;;;;;4.30;1.70;;;;;10.10;98408.00;;;;5043027;28;20757;-72
2024/01/03 07:39:05;;;;;;;0.87;0.87;;;;;10.10;98405.00;;;;5040929;28;20236;-70
2024/01/03 07:41:54;;;;;;;1.43;1.33;;;;;10.10;98408.00;;;;5046560;28;20233;-72
2024/01/03 07:44:42;;;;;;;0.80;0.80;;;;;10.10;98425.00;;;;5033241;28;20698;-72
2024/01/03 07:47:28;;;;;;;5.33;1.20;;;;;10.20;98415.00;;;;5032894;28;20596;-71
2024/01/03 07:50:15;;;;;;;2.30;1.00;;;;;10.10;98418.00;;;;5037050;28;20224;-71
2024/01/03 07:53:02;;;;;;;2.33;1.00;;;;;10.10;98414.00;;;;5033577;28;20412;-72
2024/01/03 07:55:50;;;;;;;2.77;1.27;;;;;10.10;98424.00;;;;5031235;28;20291;-70
2024/01/03 07:58:36;;;;;;;2.17;0.97;;;;;10.10;98432.00;;;;5038951;28;20236;-71
2024/01/03 08:01:23;;;;;;;1.80;1.20;;;;;10.10;98419.00;;;;5031770;28;20225;-71
2024/01/03 08:04:09;;;;;;;4.90;1.47;;;;;10.10;98408.00;;;;5030508;28;20734;-71
2024/01/03 08:06:56;;;;;;;1.50;1.20;;;;;10.10;98413.00;;;;5030003;28;20783;-72
2024/01/03 08:09:42;;;;;;;3.30;1.00;;;;;10.10;98422.00;;;;5036987;28;20355;-70
2024/01/03 08:12:30;;;;;;;1.10;1.00;;;;;10.00;98420.00;;;;5040188;28;20295;-71
2024/01/03 08:15:16;;;;;;;1.77;1.13;;;;;9.90;98413.00;;;;5030657;28;20237;-72
2024/01/03 08:18:03;;;;;;;3.70;1.27;;;;;9.90;98413.00;;;;5039573;28;20229;-71
2024/01/03 08:20:50;;;;;;;1.53;1.10;;;;;9.90;98425.00;;;;5034369;28;20236;-71
2024/01/03 08:23:36;;;;;;;5.50;1.37;;;;;9.90;98419.00;;;;5044248;28;20225;-70
2024/01/03 08:26:23;;;;;;;0.90;0.90;;;;;9.80;98429.00;;;;5040235;28;20248;-72
2024/01/03 08:29:12;;;;;;;1.03;0.83;;;;;9.80;98441.00;;;;5035169;28;20356;-72
2024/01/03 08:31:59;;;;;;;1.20;0.90;;;;;9.80;98436.00;;;;5041487;28;20252;-70
2024/01/03 08:34:46;;;;;;;1.20;1.10;;;;;9.70;98433.00;;;;5041893;28;20949;-71
2024/01/03 08:37:32;;;;;;;0.87;0.87;;;;;9.70;98448.00;;;;5028415;28;20301;-71
2024/01/03 08:40:19;;;;;;;1.33;0.97;;;;;9.70;98443.00;;;;5041283;28;20737;-72
2024/01/03 08:43:05;;;;;;;2.30;1.30;;;;;9.70;98451.00;;;;5033146;28;20224;-71
2024/01/03 08:45:52;;;;;;;1.40;1.30;;;;;9.70;98447.00;;;;5042936;28;20236;-71
2024/01/03 08:48:41;;;;;;;3.47;1.10;;;;;9.70;98456.00;;;;5043032;28;20232;-72
2024/01/03 08:51:28;;;;;;;2.50;1.30;;;;;9.80;98452.00;;;;5046641;28;20237;-72
2024/01/03 08:54:15;;;;;;;0.93;0.93;;;;;9.70;98470.00;;;;5042836;28;20240;-72
2024/01/03 08:57:01;;;;;;;1.00;0.97;;;;;9.70;98475.00;;;;5034279;28;20295;-75
2024/01/03 08:59:48;;;;;;;0.90;0.90;;;;;9.70;98479.00;;;;5043069;28;20236;-72
2024/01/03 09:02:36;;;;;;;0.87;0.77;;;;;9.80;98486.00;;;;5040150;28;20233;-71
2024/01/03 09:05:22;;;;;;;1.10;1.10;;;;;9.70;98474.00;;;;5040476;28;20241;-71
2024/01/03 09:08:08;;;;;;;1.90;0.90;;;;;9.60;98490.00;;;;5038653;28;20236;-71
2024/01/03 09:10:55;;;;;;;2.53;0.93;;;;;9.60;98481.00;;;;5040129;28;20364;-71
2024/01/03 09:13:41;;;;;;;1.00;1.00;;;;;9.70;98490.00;;;;5041619;28;20228;-68
2024/01/03 09:16:28;;;;;;;1.50;1.07;;;;;9.60;98491.00;;;;5042241;28;20232;-72
2024/01/03 09:19:16;;;;;;;1.27;1.17;;;;;9.60;98488.00;;;;5037262;28;20990;-74
2024/01/03 09:22:02;;;;;;;3.70;1.50;;;;;9.60;98498.00;;;;5035266;28;20714;-72
2024/01/03 09:24:48;;;;;;;2.03;1.40;;;;;9.60;98502.00;;;;5029930;28;20245;-74
2024/01/03 09:27:35;;;;;;;1.10;1.07;;;;;9.60;98503.00;;;;5038006;28;20882;-69
2024/01/03 09:30:21;;;;;;;1.20;0.97;;;;;9.60;98502.00;;;;5038822;28;20237;-72
2024/01/03 09:33:08;;;;;;;2.47;1.30;;;;;9.60;98510.00;;;;5042919;28;20740;-71
2024/01/03 09:35:56;;;;;;;1.70;1.17;;;;;9.60;98503.00;;;;5038183;28;20241;-71
2024/01/03 09:38:42;;;;;;;3.07;1.30;;;;;9.60;98503.00;;;;5043091;28;20237;-72
2024/01/03 09:41:30;;;;;;;4.07;1.47;;;;;9.70;98513.00;;;;5040958;28;20256;-72
2024/01/03 09:44:16;;;;;;;1.90;1.30;;;;;9.60;98523.00;;;;5044891;28;20568;-72
2024/01/03 09:47:03;;;;;;;2.67;1.27;;;;;9.70;98516.00;;;;5042930;28;20234;-72
2024/01/03 09:49:50;;;;;;;1.40;1.30;;;;;9.70;98517.00;;;;5045319;28;20374;-71
2024/01/03 09:52:40;;;;;;;2.83;1.30;;;;;9.80;98528.00;;;;5041836;28;20236;-72
2024/01/03 09:55:29;;;;;;;5.23;1.30;;;;;9.70;98526.00;;;;5032974;28;20292;-70
2024/01/03 09:58:15;;;;;;;5.87;1.10;;;;;9.80;98535.00;;;;5034167;28;20756;-71
2024/01/03 10:01:02;;;;;;;9.30;1.40;;;;;9.80;98531.00;;;;5042524;28;20224;-72
2024/01/03 10:03:49;;;;;;;2.90;1.43;;;;;9.80;98544.00;;;;5029514;28;20268;-71
2024/01/03 10:06:51;;;;;;;4.00;1.40;;;;;9.90;98546.00;;;;5035325;28;20241;-72
2024/01/03 10:09:44;;;;;;;3.07;2.10;;;;;9.90;98554.00;;;;5037734;28;20865;-72
2024/01/03 10:12:33;;;;;;;3.90;1.70;;;;;9.90;98547.00;;;;5041199;28;20236;-72
2024/01/03 10:15:20;;;;;;;5.30;1.83;;;;;10.00;98558.00;;;;5037995;28;20280;-71
2024/01/03 10:18:07;;;;;;;5.30;1.47;;;;;10.00;98555.00;;;;5031581;28;20734;-75
2024/01/03 10:20:55;;;;;;;1.87;1.63;;;;;9.90;98549.00;;;;5041292;28;20731;-71
2024/01/03 10:23:42;;;;;;;6.50;1.77;;;;;10.00;98551.00;;;;5036946;28;20233;-72
2024/01/03 10:26:30;;;;;;;6.40;1.43;;;;;10.00;98537.00;;;;5038659;28;20779;-76
2024/01/03 10:29:17;;;;;;;6.23;1.60;;;;;10.00;98545.00;;;;5037483;28;21041;-75
2024/01/03 10:32:09;;;;;;;6.57;1.70;;;;;10.10;98526.00;;;;5031730;28;23701;-72
2024/01/03 10:35:13;;;;;;;4.37;1.43;;;;;10.10;98530.00;;;;5034862;28;20777;-72
2024/01/03 10:38:01;;;;;;;6.97;1.67;;;;;10.10;98535.00;;;;5041984;28;20228;-72
2024/01/03 10:40:48;;;;;;;3.53;1.50;;;;;10.20;98534.00;;;;5038552;28;20229;-72
2024/01/03 10:43:36;;;;;;;11.23;2.23;;;;;10.30;98525.00;;;;5041323;28;20366;-71
2024/01/03 10:46:26;;;;;;;4.43;1.70;;;;;10.30;98530.00;;;;5043973;28;20237;-70
2024/01/03 10:49:12;;;;;;;6.27;1.67;;;;;10.30;98526.00;;;;5048131;28;20232;-71
2024/01/03 10:52:03;;;;;;;3.20;1.60;;;;;10.40;98523.00;;;;5040189;28;20644;-73
2024/01/03 10:54:53;;;;;;;5.93;1.63;;;;;10.40;98526.00;;;;5046393;28;20714;-73
2024/01/03 10:57:46;;;;;;;3.40;1.50;;;;;10.50;98517.00;;;;5047789;28;20255;-72
2024/01/03 11:00:44;;;;;;;5.33;1.50;;;;;10.50;98538.00;;;;5038344;28;20326;-73
2024/01/03 11:03:38;;;;;;;5.33;1.70;;;;;10.50;98525.00;;;;5036012;28;20278;-73
2024/01/03 11:06:30;;;;;;;8.40;1.90;;;;;10.50;98526.00;;;;5034442;28;20229;-74
2024/01/03 11:09:16;;;;;;;8.17;1.63;;;;;10.50;98531.00;;;;5040105;28;20235;-69
2024/01/03 11:12:08;;;;;;;9.63;1.33;;;;;10.50;98517.00;;;;5039433;28;20228;-70
2024/01/03 11:14:56;;;;;;;6.60;1.47;;;;;10.60;98518.00;;;;5044926;28;20858;-72
2024/01/03 11:17:43;;;;;;;4.63;1.50;;;;;10.60;98513.00;;;;5041467;28;20235;-71
2024/01/03 11:20:30;;;;;;;7.73;1.90;;;;;10.60;98515.00;;;;5046766;28;20602;-72
2024/01/03 11:23:32;;;;;;;6.80;1.83;;;;;10.60;98520.00;;;;5046399;28;20309;-73
2024/01/03 11:26:18;;;;;;;4.73;2.10;;;;;10.50;98512.00;;;;5041906;28;20729;-71
2024/01/03 11:29:05;;;;;;;7.53;2.07;;;;;10.50;98519.00;;;;5041271;28;20224;-72
2024/01/03 11:31:59;;;;;;;2.63;1.40;;;;;10.60;98508.00;;;;5042756;28;20232;-72
2024/01/03 11:34:48;;;;;;;4.00;1.50;;;;;10.60;98496.00;;;;5041045;28;20370;-73
2024/01/03 11:37:36;;;;;;;13.03;1.80;;;;;10.60;98523.00;;;;5041418;28;20225;-73
2024/01/03 11:40:22;;;;;;;9.00;2.27;;;;;10.70;98510.00;;;;5039335;28;20232;-72
2024/01/03 11:43:09;;;;;;;2.57;1.37;;;;;10.70;98509.00;;;;5043088;28;20228;-72
2024/01/03 11:46:06;;;;;;;6.90;1.70;;;;;10.70;98520.00;;;;5030962;28;20245;-74
2024/01/03 11:48:52;;;;;;;2.60;1.20;;;;;10.80;98526.00;;;;5044394;28;20237;-71
2024/01/03 11:51:40;;;;;;;7.30;1.80;;;;;10.80;98529.00;;;;5045749;28;20323;-73
2024/01/03 11:54:27;;;;;;;6.30;1.20;;;;;10.70;98526.00;;;;5038673;28;20294;-73
2024/01/03 11:57:14;;;;;;;1.73;1.00;;;;;10.70;98527.00;;;;5043132;28;20257;-73
2024/01/03 12:00:01;;;;;;;4.03;1.30;;;;;10.70;98520.00;;;;5042394;28;21405;-72
2024/01/03 12:02:53;;;;;;;10.10;1.63;;;;;10.80;98501.00;;;;5038735;28;20241;-72
2024/01/03 12:05:45;;;;;;;5.33;1.63;;;;;10.80;98516.00;;;;5042760;28;20367;-72
2024/01/03 12:08:34;;;;;;;4.33;1.73;;;;;10.80;98505.00;;;;5040632;28;20290;-71
2024/01/03 12:11:20;;;;;;;6.87;1.30;;;;;10.80;98507.00;;;;5046462;28;20232;-71
2024/01/03 12:14:08;;;;;;;6.70;1.63;;;;;11.00;98503.00;;;;5041762;28;20298;-73
2024/01/03 12:16:54;;;;;;;2.67;1.33;;;;;10.90;98505.00;;;;5044018;28;20283;-72
2024/01/03 12:19:40;;;;;;;4.40;1.47;;;;;10.90;98494.00;;;;5031938;28;20291;-73
2024/01/03 12:22:27;;;;;;;4.23;1.27;;;;;11.00;98505.00;;;;5036352;28;20223;-73
2024/01/03 12:25:19;;;;;;;5.17;1.30;;;;;10.90;98510.00;;;;5038774;28;20238;-74
2024/01/03 12:28:05;;;;;;;3.30;1.30;;;;;10.80;98501.00;;;;5043132;28;20240;-74
2024/01/03 12:30:51;;;;;;;4.37;1.50;;;;;10.80;98504.00;;;;5030809;28;20232;-74
2024/01/03 12:33:38;;;;;;;7.20;1.30;;;;;10.90;98500.00;;;;5039901;28;20231;-73
2024/01/03 12:36:25;;;;;;;5.47;1.90;;;;;10.80;98508.00;;;;5043119;28;20234;-73
2024/01/03 12:39:11;;;;;;;5.13;2.00;;;;;10.90;98497.00;;;;5032411;28;20233;-72
2024/01/03 12:41:59;;;;;;;6.90;1.87;;;;;10.90;98487.00;;;;5035213;28;20705;-72
2024/01/03 12:44:45;;;;;;;8.33;1.53;;;;;10.90;98498.00;;;;5035292;28;20716;-73
2024/01/03 12:47:31;;;;;;;6.80;1.53;;;;;10.80;98506.00;;;;5043797;28;20245;-73
2024/01/03 12:50:18;;;;;;;10.80;1.93;;;;;10.80;98497.00;;;;5045282;28;20224;-73
2024/01/03 12:53:05;;;;;;;3.20;1.20;;;;;10.80;98487.00;;;;5038738;28;20368;-75
2024/01/03 12:55:51;;;;;;;8.40;1.37;;;;;10.80;98481.00;;;;5040107;28;20240;-73
2024/01/03 12:58:39;;;;;;;4.63;1.80;;;;;10.70;98484.00;;;;5042484;28;20225;-72
2024/01/03 13:01:25;;;;;;;4.77;1.73;;;;;10.70;98503.00;;;;5045666;28;20299;-73
2024/01/03 13:04:12;;;;;;;5.60;1.63;;;;;10.70;98499.00;;;;5040508;28;20355;-73
2024/01/03 13:06:58;;;;;;;3.23;1.37;;;;;10.70;98501.00;;;;5037411;28;20295;-72
2024/01/03 13:09:45;;;;;;;6.23;1.83;;;;;10.80;98488.00;;;;5036891;28;20233;-74
2024/01/03 13:12:32;;;;;;;5.20;1.63;;;;;10.80;98493.00;;;;5036756;28;20372;-73
2024/01/03 13:15:20;;;;;;;6.00;1.37;;;;;10.80;98498.00;;;;5042336;28;20363;-72
2024/01/03 13:18:06;;;;;;;7.10;1.67;;;;;10.80;98485.00;;;;5038538;28;20240;-72
2024/01/03 13:20:53;;;;;;;3.60;1.37;;;;;10.70;98499.00;;;;5039723;28;20233;-73
2024/01/03 13:23:39;;;;;;;3.13;1.30;;;;;10.70;98495.00;;;;5043287;28;20243;-73
2024/01/03 13:26:25;;;;;;;4.40;1.50;;;;;10.70;98500.00;;;;5043903;28;20236;-72
2024/01/03 13:29:12;;;;;;;8.20;1.40;;;;;10.70;98490.00;;;;5038696;28;20704;-74
2024/01/03 13:31:59;;;;;;;2.67;1.37;;;;;10.70;98489.00;;;;5033378;28;20686;-74
2024/01/03 13:34:46;;;;;;;2.33;1.67;;;;;10.60;98486.00;;;;5036554;28;20608;-74
2024/01/03 13:37:32;;;;;;;4.40;1.13;;;;;10.70;98486.00;;;;5041002;28;20716;-73
2024/01/03 13:40:18;;;;;;;1.67;1.20;;;;;10.60;98485.00;;;;5042944;28;20232;-73
2024/01/03 13:43:05;;;;;;;7.47;1.40;;;;;10.70;98484.00;;;;5031360;28;20284;-70
2024/01/03 13:45:52;;;;;;;2.03;1.13;;;;;10.60;98473.00;;;;5029532;28;20237;-69
2024/01/03 13:48:40;;;;;;;1.63;1.00;;;;;10.60;98480.00;;;;5041516;28;20361;-73
2024/01/03 13:51:27;;;;;;;2.90;1.00;;;;;10.60;98469.00;;;;5036937;28;20236;-72
2024/01/03 13:54:17;;;;;;;3.97;1.27;;;;;10.70;98481.00;;;;5039352;28;20271;-73
2024/01/03 13:57:07;;;;;;;3.53;1.40;;;;;10.70;98486.00;;;;5029913;28;20325;-72
2024/01/03 13:59:54;;;;;;;1.23;1.10;;;;;10.70;98484.00;;;;5036630;28;20248;-72